createdAt,value
2019-05-17T00:02:17.502Z,24.33
2019-05-17T00:04:47.040Z,17.53
2019-05-17T00:07:16.701Z,19.13
2019-05-17T00:09:47.909Z,16.83
2019-05-17T00:12:16.904Z,22.93
2019-05-17T00:14:47.291Z,16.77
2019-05-17T00:17:17.313Z,19.83
2019-05-17T00:19:46.756Z,18.33
2019-05-17T00:22:16.728Z,18.70
2019-05-17T00:24:47.767Z,20.97
2019-05-17T00:27:17.304Z,18.33
2019-05-17T00:29:46.609Z,18.23
2019-05-17T00:32:17.070Z,19.00
2019-05-17T00:34:46.969Z,16.33
2019-05-17T00:37:17.384Z,24.37
2019-05-17T00:39:47.242Z,21.07
2019-05-17T00:42:17.065Z,18.27
2019-05-17T00:44:47.376Z,21.00
2019-05-17T00:47:17.106Z,18.27
2019-05-17T00:49:46.560Z,25.47
2019-05-17T00:52:16.660Z,21.17
2019-05-17T00:54:46.916Z,26.37
2019-05-17T00:57:16.657Z,19.03
2019-05-17T00:59:47.587Z,20.77
2019-05-17T01:02:17.154Z,19.90
2019-05-17T01:04:47.655Z,18.73
2019-05-17T01:07:17.763Z,19.70
2019-05-17T01:09:47.278Z,20.53
2019-05-17T01:12:16.661Z,21.20
2019-05-17T01:14:46.636Z,22.63
2019-05-17T01:17:16.586Z,28.83
2019-05-17T01:19:47.226Z,23.93
2019-05-17T01:22:16.962Z,28.10
2019-05-17T01:24:46.375Z,27.87
2019-05-17T01:27:17.274Z,28.27
2019-05-17T01:29:46.631Z,23.23
2019-05-17T01:32:17.290Z,27.60
2019-05-17T01:34:46.984Z,29.53
2019-05-17T01:37:17.209Z,28.07
2019-05-17T01:39:46.894Z,28.57
2019-05-17T01:42:17.258Z,25.77
2019-05-17T01:44:47.241Z,30.53
2019-05-17T01:47:16.736Z,33.97
2019-05-17T01:49:47.000Z,31.90
2019-05-17T01:52:16.742Z,30.87
2019-05-17T01:54:46.949Z,32.10
2019-05-17T01:57:16.827Z,34.20
2019-05-17T01:59:46.719Z,28.63
2019-05-17T02:02:18.872Z,35.00
2019-05-17T02:04:49.686Z,31.77
2019-05-17T02:07:18.928Z,35.60
2019-05-17T02:09:48.211Z,30.20
2019-05-17T02:12:17.446Z,39.87
2019-05-17T02:14:46.838Z,30.17
2019-05-17T02:17:17.435Z,31.57
2019-05-17T02:19:46.797Z,33.23
2019-05-17T02:22:16.710Z,32.47
2019-05-17T02:24:46.495Z,32.47
2019-05-17T02:27:15.798Z,31.67
2019-05-17T02:29:45.016Z,33.00
2019-05-17T02:32:14.466Z,38.00
2019-05-17T02:34:43.752Z,32.47
2019-05-17T02:37:13.614Z,31.87
2019-05-17T02:39:56.597Z,37.87
2019-05-17T02:42:13.992Z,27.63
2019-05-17T02:44:43.726Z,29.27
2019-05-17T02:47:13.412Z,27.97
2019-05-17T02:49:42.606Z,24.67
2019-05-17T02:52:12.453Z,29.90
2019-05-17T02:54:43.749Z,28.93
2019-05-17T02:57:14.192Z,35.47
2019-05-17T02:59:43.756Z,34.73
2019-05-17T03:02:12.959Z,32.20
2019-05-17T03:04:43.287Z,27.27
2019-05-17T03:07:13.557Z,29.40
2019-05-17T03:09:43.360Z,32.23
2019-05-17T03:12:13.008Z,30.23
2019-05-17T03:14:43.361Z,26.60
2019-05-17T03:17:14.120Z,25.43
2019-05-17T03:19:43.734Z,25.77
2019-05-17T03:22:13.316Z,28.47
2019-05-17T03:24:43.874Z,28.00
2019-05-17T03:27:13.722Z,27.13
2019-05-17T03:29:43.036Z,26.43
2019-05-17T03:32:17.445Z,24.43
2019-05-17T03:34:46.437Z,28.63
2019-05-17T03:37:16.520Z,23.37
2019-05-17T03:39:45.848Z,22.30
2019-05-17T03:42:15.147Z,23.17
2019-05-17T03:44:44.369Z,17.97
2019-05-17T03:47:13.594Z,24.83
2019-05-17T03:49:43.695Z,22.07
2019-05-17T03:52:13.697Z,21.27
2019-05-17T03:54:43.216Z,21.13
2019-05-17T03:57:13.389Z,21.57
2019-05-17T03:59:43.170Z,19.60
2019-05-17T04:02:12.567Z,22.10
2019-05-17T04:04:42.887Z,19.80
2019-05-17T04:07:12.873Z,21.33
2019-05-17T04:09:43.754Z,19.77
2019-05-17T04:12:13.742Z,23.10
2019-05-17T04:14:43.165Z,22.47
2019-05-17T04:17:13.235Z,24.13
2019-05-17T04:19:42.803Z,24.77
2019-05-17T04:22:13.934Z,26.73
2019-05-17T04:24:43.894Z,27.97
2019-05-17T04:27:13.725Z,29.63
2019-05-17T04:29:43.024Z,28.50
2019-05-17T04:32:13.109Z,26.80
2019-05-17T04:34:43.661Z,30.70
2019-05-17T04:37:13.233Z,31.27
2019-05-17T04:39:43.268Z,26.77
2019-05-17T04:42:13.518Z,27.93
2019-05-17T04:44:43.325Z,28.07
2019-05-17T04:47:13.462Z,34.03
2019-05-17T04:49:43.976Z,34.43
2019-05-17T04:52:13.850Z,30.80
2019-05-17T04:54:43.267Z,28.17
2019-05-17T04:57:13.295Z,33.17
2019-05-17T04:59:43.516Z,34.77
2019-05-17T05:02:13.258Z,31.00
2019-05-17T05:04:43.574Z,31.10
2019-05-17T05:07:13.703Z,35.33
2019-05-17T05:09:43.503Z,36.77
2019-05-17T05:12:12.773Z,29.17
2019-05-17T05:14:43.115Z,28.03
2019-05-17T05:17:12.939Z,29.80
2019-05-17T05:19:42.379Z,24.43
2019-05-17T05:22:13.555Z,31.70
2019-05-17T05:24:42.580Z,33.40
2019-05-17T05:27:11.784Z,31.63
2019-05-17T05:29:41.656Z,31.07
2019-05-17T05:32:11.892Z,23.73
2019-05-17T05:34:42.966Z,26.03
2019-05-17T05:37:12.685Z,27.50
2019-05-17T05:39:42.028Z,23.00
2019-05-17T05:42:13.825Z,27.13
2019-05-17T05:44:42.186Z,22.43
2019-05-17T05:47:11.698Z,23.90
2019-05-17T05:49:42.595Z,20.50
2019-05-17T05:52:12.556Z,19.70
2019-05-17T05:54:41.904Z,24.47
2019-05-17T05:57:12.623Z,19.73
2019-05-17T05:59:42.579Z,19.73
2019-05-17T06:02:12.311Z,18.47
2019-05-17T06:04:42.447Z,20.23
2019-05-17T06:07:12.848Z,17.53
2019-05-17T06:09:42.416Z,17.13
2019-05-17T06:12:23.445Z,20.43
2019-05-17T06:14:42.652Z,18.80
2019-05-17T06:17:12.619Z,16.70
2019-05-17T06:19:42.302Z,15.80
2019-05-17T06:22:11.981Z,14.23
2019-05-17T06:24:42.514Z,13.67
2019-05-17T06:27:12.317Z,16.47
2019-05-17T06:29:41.683Z,11.70
2019-05-17T06:32:11.918Z,11.13
2019-05-17T06:34:42.230Z,13.97
2019-05-17T06:37:12.932Z,10.57
2019-05-17T06:39:42.503Z,12.13
2019-05-17T06:42:12.076Z,12.57
2019-05-17T06:44:41.828Z,15.00
2019-05-17T06:47:11.980Z,12.53
2019-05-17T06:49:42.402Z,12.33
2019-05-17T06:52:11.783Z,11.07
2019-05-17T06:54:41.706Z,12.93
2019-05-17T06:57:12.789Z,12.73
2019-05-17T06:59:42.292Z,15.83
2019-05-17T07:02:11.531Z,12.27
2019-05-17T07:04:40.720Z,14.03
2019-05-17T07:07:30.555Z,11.93
2019-05-17T07:10:00.493Z,11.80
2019-05-17T07:12:30.704Z,11.10
2019-05-17T07:15:01.555Z,9.83
2019-05-17T07:17:31.043Z,11.60
2019-05-17T07:20:00.242Z,11.97
2019-05-17T07:22:29.751Z,11.07
2019-05-17T07:24:59.698Z,9.07
2019-05-17T07:27:41.072Z,8.83
2019-05-17T07:29:59.915Z,10.20
2019-05-17T07:32:29.747Z,10.40
2019-05-17T07:35:00.079Z,7.63
2019-05-17T07:37:30.274Z,9.50
2019-05-17T07:40:04.720Z,8.13
2019-05-17T07:42:30.922Z,10.93
2019-05-17T07:45:00.663Z,11.00
2019-05-17T07:47:29.998Z,11.27
2019-05-17T07:50:01.117Z,10.40
2019-05-17T07:52:30.140Z,9.97
2019-05-17T07:55:02.365Z,9.67
2019-05-17T07:57:30.247Z,12.93
2019-05-17T08:00:00.005Z,11.20
2019-05-17T08:02:30.648Z,10.10
2019-05-17T08:05:00.434Z,10.80
2019-05-17T08:07:30.140Z,9.23
2019-05-17T08:10:00.170Z,10.97
2019-05-17T08:12:30.555Z,9.87
2019-05-17T08:15:00.074Z,8.77
2019-05-17T08:17:30.429Z,11.03
2019-05-17T08:20:00.665Z,9.30
2019-05-17T08:22:30.268Z,10.30
2019-05-17T08:25:00.093Z,11.37
2019-05-17T08:27:29.853Z,10.13
2019-05-17T08:29:59.857Z,11.73
2019-05-17T08:32:31.558Z,11.20
2019-05-17T08:35:00.461Z,10.77
2019-05-17T08:37:30.306Z,9.70
2019-05-17T08:40:00.244Z,11.40
2019-05-17T08:42:30.103Z,12.20
2019-05-17T08:45:00.304Z,10.83
2019-05-17T08:47:30.042Z,11.40
2019-05-17T08:50:00.412Z,9.33
2019-05-17T08:52:29.939Z,12.90
2019-05-17T08:55:00.362Z,11.30
2019-05-17T08:57:30.426Z,14.10
2019-05-17T09:00:00.726Z,11.50
2019-05-17T09:02:30.393Z,12.77
2019-05-17T09:05:00.440Z,14.53
2019-05-17T09:07:29.900Z,14.13
2019-05-17T09:10:01.518Z,14.90
2019-05-17T09:12:30.130Z,12.13
2019-05-17T09:15:00.437Z,11.97
2019-05-17T09:17:30.056Z,13.80
2019-05-17T09:20:00.664Z,11.23
2019-05-17T09:22:30.610Z,12.00
2019-05-17T09:24:59.993Z,11.63
2019-05-17T09:27:30.039Z,13.03
2019-05-17T09:30:00.043Z,12.00
2019-05-17T09:32:29.678Z,11.53
2019-05-17T09:35:00.371Z,13.77
2019-05-17T09:37:30.464Z,12.20
2019-05-17T09:40:00.002Z,10.20
2019-05-17T09:42:29.983Z,10.77
2019-05-17T09:45:00.384Z,10.97
2019-05-17T09:47:30.168Z,11.83
2019-05-17T09:50:00.554Z,9.70
2019-05-17T09:52:29.969Z,12.47
2019-05-17T09:55:00.481Z,9.50
2019-05-17T09:57:29.925Z,11.07
2019-05-17T10:00:00.233Z,11.10
2019-05-17T10:02:29.640Z,12.67
2019-05-17T10:04:59.811Z,11.03
2019-05-17T10:07:29.827Z,12.83
2019-05-17T10:09:59.759Z,10.33
2019-05-17T10:12:29.217Z,8.60
2019-05-17T10:15:00.293Z,7.30
2019-05-17T10:17:29.549Z,7.80
2019-05-17T10:19:59.920Z,8.00
2019-05-17T10:22:30.457Z,6.87
2019-05-17T10:25:00.321Z,7.10
2019-05-17T10:27:30.236Z,7.90
2019-05-17T10:29:59.662Z,6.87
2019-05-17T10:32:30.878Z,7.40
2019-05-17T10:35:00.287Z,7.23
2019-05-17T10:37:30.305Z,7.10
2019-05-17T10:39:59.744Z,6.97
2019-05-17T10:42:30.542Z,6.27
2019-05-17T10:45:00.088Z,7.53
2019-05-17T10:47:30.128Z,8.27
2019-05-17T10:49:59.690Z,7.17
2019-05-17T10:52:29.998Z,7.10
2019-05-17T10:54:59.907Z,6.87
2019-05-17T10:57:30.228Z,6.87
2019-05-17T10:59:59.608Z,6.53
2019-05-17T11:02:30.411Z,9.07
2019-05-17T11:05:01.035Z,5.50
2019-05-17T11:07:30.306Z,4.87
2019-05-17T11:10:00.351Z,9.93
2019-05-17T11:12:29.910Z,7.97
2019-05-17T11:15:10.250Z,6.17
2019-05-17T11:17:30.443Z,6.97
2019-05-17T11:19:59.664Z,7.13
2019-05-17T11:22:28.888Z,8.07
2019-05-17T11:24:58.283Z,7.77
2019-05-17T11:27:27.607Z,5.57
2019-05-17T11:29:56.809Z,5.70
2019-05-17T11:32:26.040Z,7.70
2019-05-17T11:34:55.270Z,5.30
2019-05-17T11:37:24.573Z,6.20
2019-05-17T11:39:53.827Z,5.83
2019-05-17T11:42:23.081Z,6.60
2019-05-17T11:44:52.299Z,6.93
2019-05-17T11:47:21.592Z,5.27
2019-05-17T11:49:50.815Z,6.80
2019-05-17T11:52:20.024Z,6.77
2019-05-17T11:54:49.391Z,6.87
2019-05-17T11:57:18.717Z,5.67
2019-05-17T11:59:47.936Z,7.53
2019-05-17T12:02:17.184Z,7.43
2019-05-17T12:04:46.930Z,5.83
2019-05-17T12:07:16.309Z,8.80
2019-05-17T12:09:45.520Z,7.87
2019-05-17T12:12:14.736Z,6.40
2019-05-17T12:14:43.952Z,7.13
2019-05-17T12:17:13.202Z,6.60
2019-05-17T12:19:42.375Z,8.00
2019-05-17T12:22:11.608Z,7.93
2019-05-17T12:24:40.883Z,7.40
2019-05-17T12:27:10.076Z,6.53
2019-05-17T12:29:39.335Z,6.17
2019-05-17T12:32:08.633Z,6.23
2019-05-17T12:34:37.784Z,5.33
2019-05-17T12:37:07.120Z,8.37
2019-05-17T12:39:36.476Z,6.17
2019-05-17T12:42:05.836Z,5.97
2019-05-17T12:44:37.264Z,6.60
2019-05-17T12:47:06.299Z,6.23
2019-05-17T12:49:35.481Z,6.53
2019-05-17T12:52:04.728Z,8.63
2019-05-17T12:54:33.917Z,7.37
2019-05-17T12:57:04.915Z,9.67
2019-05-17T12:59:34.304Z,9.10
2019-05-17T13:02:03.568Z,8.47
2019-05-17T13:04:32.760Z,7.87
2019-05-17T13:07:02.045Z,7.63
2019-05-17T13:09:31.248Z,7.30
2019-05-17T13:12:00.476Z,6.33
2019-05-17T13:14:29.788Z,7.27
2019-05-17T13:16:59.288Z,8.70
2019-05-17T13:19:28.481Z,6.50
2019-05-17T13:21:57.708Z,7.43
2019-05-17T13:24:26.887Z,7.20
2019-05-17T13:26:56.112Z,7.50
2019-05-17T13:29:25.350Z,6.63
2019-05-17T13:31:54.694Z,8.03
2019-05-17T13:34:23.876Z,7.53
2019-05-17T13:36:53.224Z,7.10
2019-05-17T13:39:23.429Z,10.17
2019-05-17T13:41:52.633Z,7.00
2019-05-17T13:44:21.826Z,7.70
2019-05-17T13:46:51.083Z,5.13
2019-05-17T13:49:20.258Z,8.10
2019-05-17T13:51:49.472Z,8.40
2019-05-17T13:54:18.700Z,7.00
2019-05-17T13:56:48.022Z,8.17
2019-05-17T13:59:17.231Z,6.97
2019-05-17T14:01:46.452Z,7.30
2019-05-17T14:04:15.752Z,7.87
2019-05-17T14:06:45.036Z,7.47
2019-05-17T14:09:14.240Z,7.30
2019-05-17T14:11:43.519Z,6.53
2019-05-17T14:14:12.763Z,6.00
2019-05-17T14:16:41.934Z,7.30
2019-05-17T14:19:11.135Z,6.80
2019-05-17T14:21:40.316Z,7.17
2019-05-17T14:24:09.522Z,8.03
2019-05-17T14:26:38.745Z,7.03
2019-05-17T14:29:07.948Z,6.87
2019-05-17T14:31:37.121Z,6.83
2019-05-17T14:34:06.342Z,8.03
2019-05-17T14:36:35.556Z,6.67
2019-05-17T14:39:06.309Z,7.40
2019-05-17T14:41:35.580Z,7.70
2019-05-17T14:44:04.920Z,8.80
2019-05-17T14:46:34.105Z,7.90
2019-05-17T14:49:03.344Z,8.80
2019-05-17T14:51:32.529Z,9.97
2019-05-17T14:54:01.830Z,7.87
2019-05-17T14:56:30.996Z,10.07
2019-05-17T14:59:00.800Z,6.67
2019-05-17T15:01:32.777Z,6.83
2019-05-17T15:04:00.896Z,6.73
2019-05-17T15:06:30.101Z,6.40
2019-05-17T15:08:59.330Z,8.57
2019-05-17T15:11:28.562Z,7.00
2019-05-17T15:13:57.666Z,7.67
2019-05-17T15:16:26.966Z,6.43
2019-05-17T15:18:56.143Z,8.13
2019-05-17T15:21:25.375Z,7.90
2019-05-17T15:23:54.588Z,6.63
2019-05-17T15:26:23.816Z,8.97
2019-05-17T15:28:53.067Z,6.43
2019-05-17T15:31:22.303Z,8.17
2019-05-17T15:33:51.516Z,6.90
2019-05-17T15:36:21.442Z,7.17
2019-05-17T15:38:50.569Z,6.33
2019-05-17T15:41:20.063Z,6.33
2019-05-17T15:43:50.300Z,7.33
2019-05-17T15:46:19.546Z,7.27
2019-05-17T15:48:48.747Z,6.47
2019-05-17T15:51:17.956Z,7.50
2019-05-17T15:53:47.141Z,6.80
2019-05-17T15:56:16.348Z,7.73
2019-05-17T15:58:45.525Z,5.90
2019-05-17T16:01:14.749Z,6.90
2019-05-17T16:03:44.057Z,5.03
2019-05-17T16:06:13.261Z,5.83
2019-05-17T16:08:42.479Z,6.30
2019-05-17T16:11:11.731Z,7.73
2019-05-17T16:13:40.913Z,7.97
2019-05-17T16:16:10.204Z,6.87
2019-05-17T16:18:39.405Z,6.87
2019-05-17T16:21:08.584Z,7.27
2019-05-17T16:23:37.820Z,7.67
2019-05-17T16:26:07.073Z,5.23
2019-05-17T16:28:36.385Z,6.80
2019-05-17T16:31:05.604Z,6.50
2019-05-17T16:33:34.856Z,6.77
2019-05-17T16:36:04.076Z,7.57
2019-05-17T16:38:33.276Z,5.97
2019-05-17T16:41:02.851Z,6.63
2019-05-17T16:43:32.177Z,6.13
2019-05-17T16:46:01.372Z,6.60
2019-05-17T16:48:30.549Z,6.63
2019-05-17T16:50:59.764Z,7.23
2019-05-17T16:53:28.965Z,6.83
2019-05-17T16:55:58.507Z,7.23
2019-05-17T16:58:27.704Z,7.30
2019-05-17T17:00:57.288Z,6.53
2019-05-17T17:03:41.658Z,6.50
2019-05-17T17:05:58.315Z,8.40
2019-05-17T17:08:28.176Z,7.83
2019-05-17T17:10:57.412Z,9.27
2019-05-17T17:13:33.260Z,6.57
2019-05-17T17:15:58.652Z,7.53
2019-05-17T17:18:27.888Z,7.67
2019-05-17T17:20:58.084Z,8.57
2019-05-17T17:23:27.228Z,7.73
2019-05-17T17:25:56.689Z,6.87
2019-05-17T17:28:26.424Z,8.20
2019-05-17T17:30:55.826Z,7.17
2019-05-17T17:33:25.092Z,9.40
2019-05-17T17:35:54.355Z,9.30
2019-05-17T17:38:23.648Z,8.53
2019-05-17T17:40:52.887Z,7.40
2019-05-17T17:43:22.080Z,9.50
2019-05-17T17:45:52.105Z,8.80
2019-05-17T17:48:21.484Z,7.90
2019-05-17T17:50:50.910Z,9.23
2019-05-17T17:53:21.125Z,7.77
2019-05-17T17:55:50.695Z,9.50
2019-05-17T17:58:19.930Z,8.30
2019-05-17T18:00:49.212Z,7.60
2019-05-17T18:03:18.407Z,9.53
2019-05-17T18:05:47.716Z,9.77
2019-05-17T18:08:16.905Z,8.70
2019-05-17T18:10:46.689Z,8.83
2019-05-17T18:13:16.112Z,10.67
2019-05-17T18:15:45.715Z,10.03
2019-05-17T18:18:15.190Z,8.87
2019-05-17T18:20:44.932Z,9.27
2019-05-17T18:23:14.157Z,8.90
2019-05-17T18:25:43.390Z,9.80
2019-05-17T18:28:12.584Z,8.47
2019-05-17T18:30:41.824Z,9.13
2019-05-17T18:33:11.012Z,7.63
2019-05-17T18:35:40.213Z,8.97
2019-05-17T18:38:09.440Z,8.23
2019-05-17T18:40:38.652Z,7.33
2019-05-17T18:43:07.904Z,11.00
2019-05-17T18:45:37.100Z,8.93
2019-05-17T18:48:06.398Z,10.27
2019-05-17T18:50:35.691Z,8.87
2019-05-17T18:53:06.101Z,10.10
2019-05-17T18:55:35.876Z,8.00
2019-05-17T18:58:05.180Z,8.20
2019-05-17T19:00:34.398Z,9.87
2019-05-17T19:03:03.588Z,7.47
2019-05-17T19:05:32.870Z,9.67
2019-05-17T19:08:02.183Z,8.57
2019-05-17T19:10:31.546Z,11.20
2019-05-17T19:13:00.868Z,9.17
2019-05-17T19:15:30.077Z,8.57
2019-05-17T19:17:59.929Z,9.77
2019-05-17T19:20:29.847Z,9.70
2019-05-17T19:22:59.191Z,8.10
2019-05-17T19:25:28.400Z,9.97
2019-05-17T19:27:57.621Z,7.87
2019-05-17T19:30:26.946Z,9.47
2019-05-17T19:32:56.119Z,9.17
2019-05-17T19:35:25.404Z,8.17
2019-05-17T19:37:54.525Z,9.27
2019-05-17T19:40:23.928Z,10.43
2019-05-17T19:42:53.129Z,9.77
2019-05-17T19:45:22.440Z,10.33
2019-05-17T19:47:51.629Z,10.80
2019-05-17T19:50:20.836Z,9.67
2019-05-17T19:52:50.047Z,12.90
2019-05-17T19:55:19.257Z,10.00
2019-05-17T19:57:48.444Z,11.33
2019-05-17T20:00:18.249Z,10.57
2019-05-17T20:02:48.440Z,10.83
2019-05-17T20:05:18.096Z,10.40
2019-05-17T20:07:48.116Z,12.23
2019-05-17T20:10:18.185Z,14.07
2019-05-17T20:12:47.401Z,13.83
2019-05-17T20:15:18.416Z,12.90
2019-05-17T20:17:47.753Z,12.50
2019-05-17T20:20:16.972Z,13.60
2019-05-17T20:22:46.155Z,11.77
2019-05-17T20:25:15.887Z,14.57
2019-05-17T20:27:46.066Z,15.70
2019-05-17T20:30:16.109Z,14.13
2019-05-17T20:32:46.612Z,15.93
2019-05-17T20:35:18.002Z,13.50
2019-05-17T20:37:47.467Z,12.93
2019-05-17T20:40:17.618Z,14.43
2019-05-17T20:42:46.837Z,15.50
2019-05-17T20:45:30.642Z,16.70
2019-05-17T20:47:47.182Z,19.67
2019-05-17T20:50:16.513Z,16.50
2019-05-17T20:52:45.732Z,20.23
2019-05-17T20:55:15.383Z,16.90
2019-05-17T20:57:44.568Z,21.03
2019-05-17T21:00:17.151Z,18.00
2019-05-17T21:02:46.352Z,24.07
2019-05-17T21:05:17.616Z,27.90
2019-05-17T21:07:47.072Z,23.27
2019-05-17T21:10:16.483Z,27.40
2019-05-17T21:12:45.712Z,25.57
2019-05-17T21:15:15.859Z,23.83
2019-05-17T21:17:45.044Z,23.77
2019-05-17T21:20:16.025Z,24.17
2019-05-17T21:22:45.215Z,23.90
2019-05-17T21:25:14.460Z,21.83
2019-05-17T21:27:43.652Z,25.63
2019-05-17T21:30:13.657Z,26.43
2019-05-17T21:32:42.875Z,23.63
2019-05-17T21:35:12.108Z,25.20
2019-05-17T21:37:41.380Z,23.03
2019-05-17T21:40:10.803Z,24.50
2019-05-17T21:42:40.025Z,24.70
2019-05-17T21:45:09.753Z,39.63
2019-05-17T21:47:39.080Z,28.87
2019-05-17T21:50:08.288Z,27.67
2019-05-17T21:52:37.582Z,24.17
2019-05-17T21:55:06.999Z,25.90
2019-05-17T21:57:36.220Z,25.20
2019-05-17T22:00:08.835Z,25.93
2019-05-17T22:02:38.261Z,24.57
2019-05-17T22:05:32.648Z,24.20
2019-05-17T22:08:02.211Z,24.90
2019-05-17T22:10:31.701Z,24.43
2019-05-17T22:13:01.046Z,24.30
2019-05-17T22:15:30.359Z,23.37
2019-05-17T22:17:59.632Z,27.50
2019-05-17T22:20:28.843Z,25.63
2019-05-17T22:22:58.166Z,25.50
2019-05-17T22:25:27.380Z,24.60
2019-05-17T22:27:56.665Z,26.90
2019-05-17T22:30:25.841Z,29.43
2019-05-17T22:32:55.084Z,26.47
2019-05-17T22:35:24.387Z,28.17
2019-05-17T22:37:53.630Z,27.87
2019-05-17T22:40:22.860Z,25.77
2019-05-17T22:42:52.107Z,29.20
2019-05-17T22:45:21.353Z,25.10
2019-05-17T22:47:50.920Z,27.77
2019-05-17T22:50:20.164Z,29.33
2019-05-17T22:52:49.467Z,30.63
2019-05-17T22:55:18.740Z,29.73
2019-05-17T22:57:47.950Z,26.53
2019-05-17T23:00:17.428Z,28.20
2019-05-17T23:02:46.628Z,27.30
2019-05-17T23:05:15.857Z,26.57
2019-05-17T23:07:45.177Z,26.60
2019-05-17T23:10:14.588Z,25.60
2019-05-17T23:12:43.815Z,28.83
2019-05-17T23:15:13.229Z,34.03
2019-05-17T23:17:42.574Z,29.23
2019-05-17T23:20:11.981Z,31.97
2019-05-17T23:22:41.261Z,31.17
2019-05-17T23:25:10.869Z,29.80
2019-05-17T23:27:40.097Z,34.90
2019-05-17T23:30:09.688Z,32.20
2019-05-17T23:32:38.901Z,33.00
2019-05-17T23:35:08.340Z,35.83
2019-05-17T23:37:37.563Z,29.10
2019-05-17T23:40:07.471Z,30.43
2019-05-17T23:42:36.695Z,36.03
2019-05-17T23:45:06.467Z,32.10
2019-05-17T23:47:35.680Z,36.20
2019-05-17T23:50:05.905Z,34.57
2019-05-17T23:52:35.100Z,36.73
2019-05-17T23:55:05.046Z,33.13
2019-05-17T23:57:34.248Z,37.90
